Time;durP1;ratioP1;P1;durP2;ratioP2;P2;SDS_P1;SDS_P2;PMS_P1;PMS_P2;Temp;Humidity;BMP_temperature;BMP_pressure;BME280_temperature;BME280_humidity;BME280_pressure;Samples;Min_cycle;Max_cycle;Signal;HPM_P1;HPM_P2
2022/07/22 00:00:21;;;;;;;7.58;2.00;;;;;;;13.96;55.23;95806.52;1637656;88;21038;-64
2022/07/22 00:02:49;;;;;;;8.83;2.35;;;;;;;14.03;55.03;95802.31;1635015;88;21050;-64
2022/07/22 00:05:16;;;;;;;5.15;1.72;;;;;;;13.96;55.69;95805.19;1637082;86;21589;-64
2022/07/22 00:07:43;;;;;;;8.83;2.12;;;;;;;13.85;55.48;95798.41;1644914;87;21512;-64
2022/07/22 00:10:10;;;;;;;13.15;3.08;;;;;;;13.81;55.50;95797.23;1637749;87;21106;-64
2022/07/22 00:12:39;;;;;;;6.28;2.25;;;;;;;13.74;55.90;95799.17;1637903;88;21077;-64
2022/07/22 00:15:08;;;;;;;3.20;2.12;;;;;;;13.71;55.65;95799.27;1644814;87;21014;-64
2022/07/22 00:17:36;;;;;;;5.65;1.90;;;;;;;13.69;55.79;95802.41;1637816;88;21573;-64
2022/07/22 00:20:05;;;;;;;6.08;2.25;;;;;;;13.65;56.40;95800.75;1638049;88;21030;-64
2022/07/22 00:22:32;;;;;;;6.25;2.67;;;;;;;13.69;56.53;95806.85;1645125;87;21046;-64
2022/07/22 00:24:59;;;;;;;6.05;2.67;;;;;;;13.63;56.99;95808.76;1637860;88;21465;-64
2022/07/22 00:27:26;;;;;;;7.78;2.33;;;;;;;13.56;56.70;95798.36;1637782;88;21126;-64
2022/07/22 00:29:53;;;;;;;9.73;2.75;;;;;;;13.50;56.81;95798.52;1645066;87;21052;-64
2022/07/22 00:32:20;;;;;;;5.58;2.27;;;;;;;13.45;56.12;95799.95;1637480;88;21054;-64
2022/07/22 00:34:47;;;;;;;5.37;2.17;;;;;;;13.48;56.52;95802.98;1637729;88;21055;-64
2022/07/22 00:37:14;;;;;;;7.95;2.22;;;;;;;13.50;56.22;95807.79;1644629;87;21122;-64
2022/07/22 00:39:41;;;;;;;8.30;2.37;;;;;;;13.56;55.92;95807.64;1637720;88;21126;-64
2022/07/22 00:42:08;;;;;;;7.65;2.00;;;;;;;13.52;57.56;95809.48;1637819;87;21481;-64
2022/07/22 00:44:35;;;;;;;9.30;2.37;;;;;;;13.51;57.40;95812.20;1644772;87;21042;-64
2022/07/22 00:47:02;;;;;;;7.20;2.20;;;;;;;13.41;58.24;95817.73;1637523;88;21070;-64
2022/07/22 00:49:29;;;;;;;6.12;2.20;;;;;;;13.37;57.37;95819.17;1617322;88;21069;-64
2022/07/22 00:51:56;;;;;;;11.10;2.37;;;;;;;13.37;57.15;95817.38;1644917;87;21093;-64
2022/07/22 00:54:22;;;;;;;7.62;2.40;;;;;;;13.41;56.43;95816.87;1637910;87;21014;-64
2022/07/22 00:56:49;;;;;;;10.95;1.70;;;;;;;13.43;55.95;95811.08;1637427;87;21059;-64
2022/07/22 00:59:17;;;;;;;5.05;2.02;;;;;;;13.46;55.70;95816.75;1645035;87;21037;-64
2022/07/22 01:01:44;;;;;;;4.85;2.02;;;;;;;13.42;56.11;95816.80;1637449;88;21087;-64
2022/07/22 01:04:11;;;;;;;5.58;2.40;;;;;;;13.32;58.26;95819.28;1637900;87;21055;-64
2022/07/22 01:06:38;;;;;;;7.40;2.33;;;;;;;13.25;58.17;95819.45;1645274;87;21070;-64
2022/07/22 01:09:05;;;;;;;6.20;1.87;;;;;;;13.17;57.61;95812.56;1637730;88;21033;-64
2022/07/22 01:11:32;;;;;;;10.80;2.77;;;;;;;13.17;58.36;95819.18;1637381;88;21069;-64
2022/07/22 01:13:59;;;;;;;6.90;2.93;;;;;;;13.18;58.14;95819.62;1645035;87;21053;-64
2022/07/22 01:16:26;;;;;;;9.25;2.30;;;;;;;13.16;58.05;95817.91;1637660;88;21051;-64
2022/07/22 01:18:53;;;;;;;9.50;2.10;;;;;;;13.13;57.72;95824.16;1637675;88;21006;-64
2022/07/22 01:21:21;;;;;;;6.60;1.90;;;;;;;13.02;57.67;95824.86;1645185;87;21062;-64
2022/07/22 01:23:48;;;;;;;4.70;2.07;;;;;;;12.96;57.20;95827.21;1637822;87;21027;-64
2022/07/22 01:26:17;;;;;;;8.67;2.30;;;;;;;12.94;57.16;95825.05;1637580;88;21596;-64
2022/07/22 01:28:44;;;;;;;6.63;2.37;;;;;;;12.83;59.07;95827.09;1645103;87;21085;-64
2022/07/22 01:31:11;;;;;;;6.43;2.00;;;;;;;12.76;58.63;95829.02;1637647;88;21061;-64
2022/07/22 01:33:37;;;;;;;9.00;2.33;;;;;;;12.77;58.36;95822.83;1637753;88;21023;-64
2022/07/22 01:36:07;;;;;;;4.72;1.80;;;;;;;12.80;57.97;95823.20;1644673;87;21109;-64
2022/07/22 01:38:34;;;;;;;6.47;2.10;;;;;;;12.83;58.32;95822.27;1637544;88;21026;-64
2022/07/22 01:41:01;;;;;;;4.17;2.07;;;;;;;12.87;57.79;95818.61;1637961;87;21054;-64
2022/07/22 01:43:28;;;;;;;4.97;2.00;;;;;;;12.87;57.31;95818.16;1644715;87;21021;-64
2022/07/22 01:45:56;;;;;;;6.03;2.00;;;;;;;12.89;56.89;95817.67;1637252;88;21066;-64
2022/07/22 01:48:24;;;;;;;5.57;2.10;;;;;;;12.93;56.94;95823.78;1637785;88;21505;-64
2022/07/22 01:50:52;;;;;;;16.10;3.83;;;;;;;12.91;57.40;95826.91;1645096;87;21118;-65
2022/07/22 01:53:19;;;;;;;5.93;2.37;;;;;;;12.87;58.14;95819.48;1637694;87;21559;-64
2022/07/22 01:55:46;;;;;;;5.73;1.90;;;;;;;12.84;58.91;95826.18;1637687;87;21059;-64
2022/07/22 01:58:13;;;;;;;4.23;1.77;;;;;;;12.81;58.36;95830.69;1644762;87;21022;-64
2022/07/22 02:00:43;;;;;;;6.13;3.20;;;;;;;12.72;57.93;95826.00;1637300;87;21098;-64
2022/07/22 02:03:10;;;;;;;6.43;2.73;;;;;;;12.66;57.90;95826.63;1637795;87;21026;-64
2022/07/22 02:05:38;;;;;;;5.70;2.40;;;;;;;12.64;58.53;95831.07;1644824;87;21062;-64
2022/07/22 02:08:10;;;;;;;4.70;1.87;;;;;;;12.60;58.55;95825.42;1644444;87;21569;-64
2022/07/22 02:10:41;;;;;;;6.37;2.17;;;;;;;12.58;58.17;95817.99;1613252;87;21053;-64
2022/07/22 02:13:08;;;;;;;5.27;2.30;;;;;;;12.58;58.20;95824.61;1644963;87;21046;-64
2022/07/22 02:15:35;;;;;;;4.13;1.97;;;;;;;12.52;57.88;95833.11;1644803;87;21021;-64
2022/07/22 02:18:14;;;;;;;6.63;2.20;;;;;;;12.44;58.97;95829.73;1644641;87;21170;-64
2022/07/22 02:20:43;;;;;;;4.50;2.17;;;;;;;12.40;58.77;95826.76;1638526;87;21027;-64
2022/07/22 02:23:11;;;;;;;3.73;1.70;;;;;;;12.39;58.35;95828.97;1644882;87;21062;-64
2022/07/22 02:25:40;;;;;;;3.77;1.80;;;;;;;12.44;57.88;95835.03;1644920;87;21010;-64
2022/07/22 02:28:07;;;;;;;3.90;1.80;;;;;;;12.49;57.63;95833.15;1644728;87;21049;-64
2022/07/22 02:30:34;;;;;;;3.80;1.70;;;;;;;12.50;57.78;95825.64;1644964;87;20986;-64
2022/07/22 02:33:01;;;;;;;6.37;2.23;;;;;;;12.40;59.70;95824.53;1644656;87;21595;-64
2022/07/22 02:35:29;;;;;;;4.47;2.00;;;;;;;12.38;58.94;95821.94;1644842;87;21009;-64
2022/07/22 02:37:55;;;;;;;3.53;2.00;;;;;;;12.40;58.28;95822.79;1644644;87;21054;-64
2022/07/22 02:40:22;;;;;;;5.77;1.80;;;;;;;12.38;58.62;95819.76;1644964;87;21572;-64
2022/07/22 02:42:49;;;;;;;3.67;1.90;;;;;;;12.32;58.78;95815.02;1644470;87;21062;-64
2022/07/22 02:45:16;;;;;;;5.90;1.90;;;;;;;12.27;58.86;95822.19;1644839;87;21014;-64
2022/07/22 02:47:53;;;;;;;3.50;1.90;;;;;;;12.20;59.03;95819.70;1638489;87;21023;-64
2022/07/22 02:50:22;;;;;;;4.43;2.00;;;;;;;12.16;58.45;95818.02;1644854;87;21025;-64
2022/07/22 02:52:49;;;;;;;2.73;1.90;;;;;;;12.19;58.42;95818.81;1644904;87;21057;-64
2022/07/22 02:55:17;;;;;;;3.90;1.80;;;;;;;12.26;58.23;95818.23;1644993;87;21065;-64
2022/07/22 02:57:45;;;;;;;5.30;1.60;;;;;;;12.15;58.40;95814.97;1638532;87;21511;-64
2022/07/22 03:00:14;;;;;;;6.20;2.00;;;;;;;12.15;59.45;95820.26;1644753;87;21078;-64
2022/07/22 03:02:41;;;;;;;3.87;2.10;;;;;;;12.08;59.38;95823.47;1644778;87;21177;-64
2022/07/22 03:05:10;;;;;;;6.33;2.10;;;;;;;12.08;58.61;95816.40;1643662;87;21113;-64
2022/07/22 03:07:38;;;;;;;2.07;1.87;;;;;;;12.20;58.24;95817.92;1639884;87;21066;-64
2022/07/22 03:10:08;;;;;;;6.87;1.90;;;;;;;12.28;58.28;95814.66;1639960;87;21540;-64
2022/07/22 03:12:35;;;;;;;2.73;1.80;;;;;;;12.27;58.03;95812.93;1625724;88;21022;-64
2022/07/22 03:15:02;;;;;;;4.40;1.87;;;;;;;12.28;58.01;95814.66;1640000;87;21054;-64
2022/07/22 03:17:36;;;;;;;2.90;1.80;;;;;;;12.27;58.08;95806.73;1640304;87;21022;-64
2022/07/22 03:20:07;;;;;;;3.17;1.83;;;;;;;12.29;58.28;95802.29;1640077;87;21082;-64
2022/07/22 03:22:34;;;;;;;7.20;1.77;;;;;;;12.25;59.21;95810.76;1639965;87;21051;-64
2022/07/22 03:25:02;;;;;;;3.17;1.90;;;;;;;12.21;59.16;95808.20;1607911;89;21595;-64
2022/07/22 03:27:29;;;;;;;2.07;1.70;;;;;;;12.26;58.52;95807.66;1640142;87;21034;-64
2022/07/22 03:29:56;;;;;;;2.10;1.67;;;;;;;12.32;58.09;95810.16;1642636;87;21568;-64
2022/07/22 03:32:23;;;;;;;3.63;1.93;;;;;;;12.35;58.52;95814.08;1639679;87;21011;-64
2022/07/22 03:34:50;;;;;;;4.27;1.80;;;;;;;12.37;60.63;95811.38;1640074;87;21529;-64
2022/07/22 03:37:17;;;;;;;3.47;1.90;;;;;;;12.40;60.57;95816.17;1643122;87;21011;-64
2022/07/22 03:39:43;;;;;;;3.73;1.90;;;;;;;12.46;59.24;95814.70;1639969;87;21529;-64
2022/07/22 03:42:11;;;;;;;2.00;1.53;;;;;;;12.45;59.14;95817.40;1639940;87;21082;-64
2022/07/22 03:44:39;;;;;;;2.67;1.70;;;;;;;12.48;59.27;95818.19;1642453;87;21052;-65
2022/07/22 03:47:06;;;;;;;2.07;1.60;;;;;;;12.56;58.84;95814.91;1614191;87;21030;-64
2022/07/22 03:49:34;;;;;;;2.60;1.43;;;;;;;12.63;58.60;95820.94;1640062;87;21107;-64
2022/07/22 03:52:01;;;;;;;2.83;2.23;;;;;;;12.76;58.47;95825.03;1642626;87;21427;-64
2022/07/22 03:54:28;;;;;;;4.17;2.60;;;;;;;12.84;58.46;95822.67;1640057;87;21027;-64
2022/07/22 03:56:55;;;;;;;3.10;1.60;;;;;;;12.89;58.81;95822.11;1639726;87;21066;-64
2022/07/22 03:59:23;;;;;;;3.50;2.00;;;;;;;12.98;58.88;95819.24;1642605;87;21030;-65
2022/07/22 04:01:49;;;;;;;6.15;2.42;;;;;;;13.09;59.41;95815.00;1639937;87;21079;-64
2022/07/22 04:04:16;;;;;;;3.30;1.50;;;;;;;13.17;59.41;95819.18;1639920;87;21094;-64
2022/07/22 04:06:45;;;;;;;2.73;2.20;;;;;;;13.29;59.38;95815.86;1644345;87;21616;-64
2022/07/22 04:09:20;;;;;;;2.35;1.95;;;;;;;13.37;58.60;95813.41;1637722;87;21070;-64
2022/07/22 04:11:50;;;;;;;4.65;2.70;;;;;;;13.48;59.00;95817.13;1637690;88;21047;-65
2022/07/22 04:14:17;;;;;;;37.05;23.98;;;;;;;13.62;58.38;95813.62;1644884;87;21024;-64
2022/07/22 04:16:45;;;;;;;14.63;9.95;;;;;;;13.71;56.68;95813.85;1637834;88;21103;-64
2022/07/22 04:19:14;;;;;;;18.87;10.53;;;;;;;13.82;57.10;95818.86;1637730;87;21049;-64
2022/07/22 04:21:42;;;;;;;24.72;17.02;;;;;;;13.92;57.44;95817.68;1638242;87;21074;-64
2022/07/22 04:24:11;;;;;;;10.95;8.05;;;;;;;14.05;56.13;95824.37;1637527;88;21127;-64
2022/07/22 04:26:38;;;;;;;9.30;5.20;;;;;;;14.15;56.44;95819.67;1638132;88;21014;-64
2022/07/22 04:29:05;;;;;;;14.38;10.28;;;;;;;14.26;59.49;95822.91;1644798;87;21041;-65
2022/07/22 04:31:33;;;;;;;13.45;9.05;;;;;;;14.37;57.95;95812.42;1639219;87;21050;-65
2022/07/22 04:34:01;;;;;;;10.72;8.30;;;;;;;14.48;58.00;95813.81;1637959;87;21034;-65
2022/07/22 04:36:28;;;;;;;11.85;8.48;;;;;;;14.60;56.18;95815.27;1644733;87;21593;-65
2022/07/22 04:38:56;;;;;;;12.90;7.83;;;;;;;14.70;56.09;95812.73;1637830;88;21062;-64
2022/07/22 04:41:24;;;;;;;8.90;6.85;;;;;;;14.86;55.81;95813.58;1637508;88;21801;-64
2022/07/22 04:43:51;;;;;;;5.00;3.95;;;;;;;14.95;54.62;95809.31;1644821;87;21121;-64
2022/07/22 04:46:19;;;;;;;5.75;3.90;;;;;;;15.07;52.77;95807.59;1637728;87;21011;-64
2022/07/22 04:48:47;;;;;;;7.20;4.50;;;;;;;15.17;52.86;95811.25;1637696;87;21066;-64
2022/07/22 04:51:14;;;;;;;5.08;4.42;;;;;;;15.27;53.56;95803.38;1645016;87;21046;-64
2022/07/22 04:53:41;;;;;;;6.40;4.55;;;;;;;15.42;53.35;95813.95;1637962;88;21015;-64
2022/07/22 04:56:09;;;;;;;7.03;4.33;;;;;;;15.55;53.23;95799.34;1637627;87;21035;-64
2022/07/22 04:58:36;;;;;;;5.87;4.17;;;;;;;15.71;52.81;95807.20;1645093;87;21018;-64
2022/07/22 05:01:02;;;;;;;6.28;4.10;;;;;;;15.85;52.85;95814.72;1637691;88;21531;-64
2022/07/22 05:03:29;;;;;;;5.45;4.12;;;;;;;15.99;52.90;95816.86;1637662;87;21074;-64
2022/07/22 05:05:56;;;;;;;5.72;3.50;;;;;;;16.12;54.60;95814.15;1642187;87;21120;-64
2022/07/22 05:08:28;;;;;;;5.62;3.85;;;;;;;16.27;51.52;95818.52;1634679;88;21565;-64
2022/07/22 05:10:55;;;;;;;7.47;4.17;;;;;;;16.39;51.20;95815.39;1634887;88;21078;-64
2022/07/22 05:13:22;;;;;;;6.45;4.40;;;;;;;16.54;52.13;95811.28;1637792;87;21054;-64
2022/07/22 05:15:49;;;;;;;6.95;4.03;;;;;;;16.69;52.13;95807.16;1634979;88;21593;-64
2022/07/22 05:18:16;;;;;;;8.93;4.40;;;;;;;16.83;52.10;95812.81;1635029;87;21544;-64
2022/07/22 05:20:44;;;;;;;7.30;3.50;;;;;;;17.01;51.79;95813.88;1637660;88;21062;-64
2022/07/22 05:23:11;;;;;;;6.70;3.12;;;;;;;17.18;51.07;95807.86;1634950;88;21429;-64
2022/07/22 05:25:38;;;;;;;5.17;3.02;;;;;;;17.36;51.47;95812.46;1635164;87;21497;-64
2022/07/22 05:28:05;;;;;;;6.97;3.10;;;;;;;17.53;50.50;95819.73;1635658;88;21112;-64
2022/07/22 05:30:34;;;;;;;5.87;2.95;;;;;;;17.66;49.78;95820.94;1634933;88;21099;-64
2022/07/22 05:33:02;;;;;;;8.45;3.22;;;;;;;17.85;50.42;95821.53;1635204;87;21054;-64
2022/07/22 05:35:47;;;;;;;4.60;3.00;;;;;;;17.99;50.75;95821.77;1637510;88;21134;-64
2022/07/22 05:38:14;;;;;;;5.33;3.60;;;;;;;18.19;50.43;95820.02;1634957;88;21517;-64
2022/07/22 05:40:42;;;;;;;5.30;2.77;;;;;;;18.34;49.77;95821.55;1634931;87;21090;-64
2022/07/22 05:43:08;;;;;;;4.55;2.90;;;;;;;18.50;49.32;95819.04;1637794;87;21082;-64
2022/07/22 05:45:35;;;;;;;11.43;3.30;;;;;;;18.68;48.95;95829.81;1635186;87;21030;-64
2022/07/22 05:48:04;;;;;;;5.62;3.10;;;;;;;18.87;48.38;95828.50;1635103;88;21091;-64
2022/07/22 05:50:31;;;;;;;6.78;2.67;;;;;;;19.01;47.32;95826.90;1638052;88;21062;-64
2022/07/22 05:52:58;;;;;;;4.45;2.58;;;;;;;19.17;47.17;95829.69;1635272;88;21078;-64
2022/07/22 05:55:25;;;;;;;9.78;2.40;;;;;;;19.31;46.07;95819.66;1635190;87;21079;-64
2022/07/22 05:57:52;;;;;;;6.50;2.60;;;;;;;19.49;44.47;95822.38;1637413;88;21065;-64
2022/07/22 06:00:19;;;;;;;12.80;2.98;;;;;;;19.63;45.05;95810.47;1634990;88;21478;-64
2022/07/22 06:02:46;;;;;;;9.33;2.27;;;;;;;19.86;44.93;95819.59;1635294;87;21079;-64
2022/07/22 06:05:15;;;;;;;13.25;2.42;;;;;;;20.05;43.48;95820.81;1637735;88;21090;-64
2022/07/22 06:07:42;;;;;;;13.13;2.75;;;;;;;20.22;43.44;95822.62;1639660;87;21070;-64
2022/07/22 06:10:10;;;;;;;5.85;2.25;;;;;;;20.39;43.71;95818.19;1640098;87;21042;-64
2022/07/22 06:12:37;;;;;;;6.97;2.85;;;;;;;20.56;43.65;95822.64;1642421;87;21074;-64
2022/07/22 06:15:05;;;;;;;6.17;3.20;;;;;;;20.75;43.70;95818.02;1639874;87;21046;-64
2022/07/22 06:17:33;;;;;;;8.10;4.37;;;;;;;20.96;43.12;95819.52;1614121;87;21090;-64
2022/07/22 06:20:00;;;;;;;7.60;3.33;;;;;;;21.18;43.27;95807.55;1642692;87;21069;-64
2022/07/22 06:22:27;;;;;;;6.37;2.60;;;;;;;21.38;42.77;95805.07;1625638;88;21098;-65
2022/07/22 06:24:54;;;;;;;2.85;2.40;;;;;;;21.59;41.49;95805.17;1640021;87;21096;-64
2022/07/22 06:27:21;;;;;;;7.47;2.60;;;;;;;21.82;40.76;95798.92;1642428;87;21093;-65
2022/07/22 06:29:48;;;;;;;8.63;2.40;;;;;;;22.01;37.05;95800.89;1613975;87;21556;-65
2022/07/22 06:32:15;;;;;;;6.20;2.17;;;;;;;22.21;36.86;95800.20;1639904;87;21046;-65
2022/07/22 06:34:42;;;;;;;8.18;2.40;;;;;;;22.42;36.00;95804.72;1642818;87;21066;-65
2022/07/22 06:37:09;;;;;;;8.63;2.30;;;;;;;22.60;36.89;95793.28;1639750;87;21596;-64
2022/07/22 06:39:36;;;;;;;5.70;2.27;;;;;;;22.80;35.31;95794.72;1640030;87;21548;-65
2022/07/22 06:42:03;;;;;;;6.75;2.52;;;;;;;23.00;35.29;95790.78;1642664;87;21058;-65
2022/07/22 06:44:44;;;;;;;10.68;2.20;;;;;;;23.19;35.78;95791.31;1638303;87;21091;-64
2022/07/22 06:47:13;;;;;;;8.10;2.00;;;;;;;23.40;31.45;95790.38;1638614;87;21062;-65
2022/07/22 06:49:41;;;;;;;7.33;1.80;;;;;;;23.58;32.65;95788.77;1642522;87;21584;-65
2022/07/22 06:52:08;;;;;;;6.22;1.77;;;;;;;23.78;33.36;95783.42;1639912;87;21062;-65
2022/07/22 06:54:36;;;;;;;6.53;1.90;;;;;;;23.96;29.78;95789.78;1640141;87;21054;-65
2022/07/22 06:57:03;;;;;;;9.55;2.40;;;;;;;24.17;31.91;95798.70;1642767;87;21073;-65
2022/07/22 06:59:32;;;;;;;7.92;1.90;;;;;;;24.32;31.32;95790.03;1639976;87;21118;-65
2022/07/22 07:01:59;;;;;;;2.98;1.60;;;;;;;24.48;29.43;95792.53;1639733;87;21043;-65
2022/07/22 07:04:26;;;;;;;7.50;1.70;;;;;;;24.64;25.92;95786.41;1642947;87;21010;-65
2022/07/22 07:06:53;;;;;;;8.35;1.82;;;;;;;24.80;27.30;95786.19;1640103;87;21050;-65
2022/07/22 07:09:25;;;;;;;7.73;1.80;;;;;;;24.98;27.63;95797.00;1637042;87;21557;-65
2022/07/22 07:12:12;;;;;;;7.15;1.70;;;;;;;25.15;27.86;95788.13;1641725;87;21551;-65
2022/07/22 07:14:41;;;;;;;3.30;1.62;;;;;;;25.37;26.40;95790.16;1632826;87;21092;-65
2022/07/22 07:17:08;;;;;;;2.40;1.65;;;;;;;25.55;26.36;95786.56;1639821;87;21082;-65
2022/07/22 07:19:35;;;;;;;7.45;2.12;;;;;;;25.75;26.39;95782.36;1642624;87;21593;-65
2022/07/22 07:22:02;;;;;;;6.25;2.65;;;;;;;25.96;26.12;95790.23;1639945;87;21588;-65
2022/07/22 07:24:29;;;;;;;5.90;1.60;;;;;;;26.04;25.38;95785.08;1639751;87;21624;-65
2022/07/22 07:26:56;;;;;;;5.35;1.82;;;;;;;26.20;24.17;95787.45;1643149;87;21026;-65
2022/07/22 07:29:23;;;;;;;2.62;1.55;;;;;;;26.38;24.67;95785.14;1639800;87;21030;-65
2022/07/22 07:31:50;;;;;;;3.05;1.65;;;;;;;26.48;23.73;95783.44;1639982;87;21008;-65
2022/07/22 07:34:18;;;;;;;4.70;1.95;;;;;;;26.62;24.29;95782.89;1643147;87;21153;-65
2022/07/22 07:36:44;;;;;;;2.40;1.75;;;;;;;26.73;25.40;95781.03;1640024;87;21030;-65
2022/07/22 07:39:13;;;;;;;4.17;1.50;;;;;;;26.89;25.47;95775.77;1640063;87;21090;-65
2022/07/22 07:41:41;;;;;;;8.83;1.98;;;;;;;27.08;25.33;95772.41;1642791;87;21588;-65
2022/07/22 07:44:08;;;;;;;2.65;1.80;;;;;;;27.23;25.61;95776.59;1640061;87;21047;-65
2022/07/22 07:46:35;;;;;;;3.17;1.92;;;;;;;27.43;25.03;95773.59;1639865;87;21058;-65
2022/07/22 07:49:02;;;;;;;2.67;1.77;;;;;;;27.61;25.41;95773.91;1642705;87;21619;-65
2022/07/22 07:51:29;;;;;;;4.42;1.60;;;;;;;27.81;25.51;95777.19;1639968;87;21489;-65
2022/07/22 07:53:56;;;;;;;3.25;1.67;;;;;;;27.96;25.30;95779.60;1640381;87;21146;-64
2022/07/22 07:56:23;;;;;;;2.02;1.70;;;;;;;28.13;23.55;95783.59;1642921;87;21086;-64
2022/07/22 07:58:50;;;;;;;2.72;1.70;;;;;;;28.22;24.33;95778.24;1640217;87;21090;-64
2022/07/22 08:01:18;;;;;;;4.92;1.90;;;;;;;28.37;24.72;95776.53;1639998;87;21557;-64
2022/07/22 08:03:46;;;;;;;2.67;1.62;;;;;;;28.55;23.81;95783.12;1643082;87;21058;-65
2022/07/22 08:06:13;;;;;;;3.98;1.70;;;;;;;28.64;22.57;95778.22;1639494;87;21117;-64
2022/07/22 08:08:40;;;;;;;3.37;1.67;;;;;;;28.74;23.07;95782.35;1637743;87;21042;-65
2022/07/22 08:11:09;;;;;;;4.17;1.90;;;;;;;28.91;24.01;95780.36;1644826;87;21580;-65
2022/07/22 08:13:41;;;;;;;5.33;1.90;;;;;;;29.14;23.68;95769.83;1634403;88;21070;-65
2022/07/22 08:16:23;;;;;;;12.95;2.70;;;;;;;29.26;22.54;95775.52;1638092;87;21070;-65
2022/07/22 08:18:50;;;;;;;7.40;1.77;;;;;;;29.33;22.30;95768.50;1645002;87;21089;-65
2022/07/22 08:21:17;;;;;;;5.17;1.67;;;;;;;29.49;22.94;95773.42;1637903;88;21023;-65
2022/07/22 08:23:52;;;;;;;4.15;1.85;;;;;;;29.71;23.06;95767.77;1618046;88;21086;-65
2022/07/22 08:26:19;;;;;;;10.65;2.02;;;;;;;29.92;22.29;95767.62;1638560;87;21058;-65
2022/07/22 08:28:46;;;;;;;3.77;1.60;;;;;;;30.05;21.34;95764.61;1637810;88;21118;-65
2022/07/22 08:31:13;;;;;;;4.10;1.80;;;;;;;30.18;21.46;95767.03;1637735;87;21090;-65
2022/07/22 08:33:41;;;;;;;3.75;1.95;;;;;;;30.28;21.60;95769.27;1644653;87;21058;-65
2022/07/22 08:36:09;;;;;;;11.83;3.35;;;;;;;30.37;20.86;95768.91;1637706;87;21559;-65
2022/07/22 08:38:36;;;;;;;3.70;1.80;;;;;;;30.40;21.28;95765.38;1637748;88;21158;-65
2022/07/22 08:41:04;;;;;;;1.87;1.60;;;;;;;30.58;21.35;95775.02;1644898;87;21552;-65
2022/07/22 08:43:36;;;;;;;4.67;2.05;;;;;;;30.79;21.41;95772.58;1637822;88;21039;-65
2022/07/22 08:46:03;;;;;;;3.95;1.90;;;;;;;30.97;21.09;95776.77;1637732;88;21051;-65
2022/07/22 08:48:32;;;;;;;4.75;1.80;;;;;;;31.11;20.44;95779.53;1644701;87;21085;-65
2022/07/22 08:51:04;;;;;;;2.77;1.50;;;;;;;31.24;20.63;95775.43;1635096;87;21125;-65
2022/07/22 08:53:33;;;;;;;5.85;1.90;;;;;;;31.27;20.24;95772.91;1636944;87;21042;-65
2022/07/22 08:56:07;;;;;;;3.62;1.52;;;;;;;31.54;19.82;95767.98;1645092;87;21018;-65
2022/07/22 08:58:34;;;;;;;4.20;1.80;;;;;;;31.54;19.82;95767.98;1637800;88;21018;-65
2022/07/22 09:01:15;;;;;;;2.70;1.72;;;;;;;31.67;19.58;95773.91;1637660;88;21034;-65
2022/07/22 09:03:51;;;;;;;4.10;1.50;;;;;;;31.86;20.08;95776.17;1644839;87;21121;-65
2022/07/22 09:06:20;;;;;;;3.27;1.47;;;;;;;32.00;19.67;95777.00;1637933;87;21086;-65
2022/07/22 09:08:54;;;;;;;3.92;1.65;;;;;;;32.07;18.62;95771.78;1639934;87;21105;-65
2022/07/22 09:11:39;;;;;;;2.67;1.80;;;;;;;32.04;18.58;95772.95;1642970;87;21058;-65
2022/07/22 09:14:25;;;;;;;2.98;1.60;;;;;;;32.18;19.42;95770.67;1639833;87;21462;-65
2022/07/22 09:17:02;;;;;;;2.87;1.70;;;;;;;32.46;19.07;95768.70;1635672;87;21592;-65
2022/07/22 09:19:35;;;;;;;5.25;1.70;;;;;;;32.53;18.36;95764.33;1643015;87;21073;-65
2022/07/22 09:22:42;;;;;;;2.58;1.57;;;;;;;32.57;17.99;95763.52;1640051;87;21047;-65
2022/07/22 09:25:28;;;;;;;4.87;1.70;;;;;;;32.74;18.61;95764.83;1639949;87;21572;-65
2022/07/22 09:28:10;;;;;;;2.62;1.70;;;;;;;32.93;18.19;95766.98;1586485;87;21026;-65
2022/07/22 09:30:47;;;;;;;4.45;1.92;;;;;;;32.98;18.29;95773.66;1608592;88;21557;-65
2022/07/22 09:33:15;;;;;;;4.08;1.92;;;;;;;33.18;18.86;95762.00;1639641;87;21555;-65
2022/07/22 09:35:46;;;;;;;7.83;1.80;;;;;;;33.38;17.06;95767.22;1642907;87;21091;-65
2022/07/22 09:38:15;;;;;;;5.58;1.85;;;;;;;33.48;17.67;95764.36;1640015;87;21032;-65
2022/07/22 09:40:46;;;;;;;3.37;1.95;;;;;;;33.64;18.44;95766.30;1640118;87;21111;-65
2022/07/22 09:43:17;;;;;;;6.27;2.63;;;;;;;33.82;17.53;95759.70;1612783;89;21059;-65
2022/07/22 09:45:58;;;;;;;6.40;2.70;;;;;;;34.00;17.79;95763.66;1640190;87;21034;-65
2022/07/22 09:48:30;;;;;;;5.45;2.55;;;;;;;34.18;17.62;95760.78;1641340;87;21556;-65
2022/07/22 09:51:16;;;;;;;8.48;2.95;;;;;;;34.24;16.91;95761.45;1639834;87;21099;-65
2022/07/22 09:53:51;;;;;;;9.10;2.90;;;;;;;34.30;15.46;95762.68;1635934;87;21112;-65
2022/07/22 09:56:19;;;;;;;11.55;2.90;;;;;;;34.32;15.55;95761.13;1642660;87;21082;-65
2022/07/22 09:58:46;;;;;;;8.93;2.67;;;;;;;34.44;15.72;95760.60;1640101;87;21129;-65
2022/07/22 10:01:16;;;;;;;8.98;2.65;;;;;;;34.49;15.21;95764.20;1638974;87;21026;-65
2022/07/22 10:03:46;;;;;;;10.80;2.98;;;;;;;34.46;15.00;95763.18;1640346;87;21090;-65
2022/07/22 10:06:13;;;;;;;7.65;2.83;;;;;;;34.57;15.57;95761.45;1625897;88;21095;-65
2022/07/22 10:08:41;;;;;;;10.65;3.00;;;;;;;34.69;15.60;95761.98;1637671;87;21071;-65
2022/07/22 10:11:09;;;;;;;13.05;2.42;;;;;;;34.86;15.22;95762.81;1638691;87;21058;-65
2022/07/22 10:13:38;;;;;;;7.28;2.92;;;;;;;34.93;15.08;95760.21;1637452;88;21134;-65
2022/07/22 10:16:07;;;;;;;8.28;2.83;;;;;;;34.93;15.05;95768.44;1637696;88;21538;-65
2022/07/22 10:18:35;;;;;;;11.28;3.20;;;;;;;34.95;15.16;95765.01;1644698;87;21527;-65
2022/07/22 10:21:06;;;;;;;10.88;2.70;;;;;;;35.03;14.40;95760.87;1637700;87;21007;-65
2022/07/22 10:23:33;;;;;;;8.63;3.02;;;;;;;35.02;14.62;95761.39;1637971;87;21573;-65
2022/07/22 10:26:03;;;;;;;7.35;2.92;;;;;;;35.14;14.71;95755.58;1644907;87;21022;-65
2022/07/22 10:28:34;;;;;;;8.80;2.85;;;;;;;35.24;14.62;95752.95;1637652;88;21552;-65
2022/07/22 10:31:25;;;;;;;8.18;2.62;;;;;;;35.11;14.29;95759.00;1637823;88;21552;-65
2022/07/22 10:33:55;;;;;;;10.40;2.90;;;;;;;35.10;14.23;95758.67;1610185;89;21090;-65
2022/07/22 10:36:37;;;;;;;9.48;3.25;;;;;;;35.29;14.34;95757.39;1637797;88;21520;-65
2022/07/22 10:39:14;;;;;;;9.38;2.90;;;;;;;35.37;13.63;95750.16;1644791;87;21053;-65
2022/07/22 10:41:44;;;;;;;8.58;2.62;;;;;;;35.55;14.42;95746.11;1637820;87;21513;-65
2022/07/22 10:44:12;;;;;;;6.90;3.17;;;;;;;35.76;13.54;95741.94;1637673;88;21520;-65
2022/07/22 10:46:52;;;;;;;9.53;2.92;;;;;;;35.75;14.01;95735.56;1644728;87;21086;-65
2022/07/22 10:49:22;;;;;;;7.30;2.85;;;;;;;35.84;14.50;95741.88;1637716;88;21113;-65
2022/07/22 10:52:20;;;;;;;10.30;3.20;;;;;;;35.94;14.23;95744.39;1637801;88;21071;-65
2022/07/22 10:55:22;;;;;;;9.98;2.90;;;;;;;35.98;13.80;95752.05;1609925;89;21035;-65
2022/07/22 10:57:49;;;;;;;9.78;3.02;;;;;;;36.14;14.08;95751.13;1637831;88;21038;-65
2022/07/22 11:00:15;;;;;;;10.40;3.20;;;;;;;36.33;14.18;95752.52;1644464;87;21050;-65
2022/07/22 11:02:42;;;;;;;9.88;3.12;;;;;;;36.09;14.05;95743.97;1637492;88;21074;-65
2022/07/22 11:05:09;;;;;;;10.63;3.47;;;;;;;36.14;14.19;95750.29;1637620;87;21058;-65
2022/07/22 11:07:44;;;;;;;12.35;3.20;;;;;;;36.16;13.78;95740.83;1642484;87;21058;-65
2022/07/22 11:10:18;;;;;;;8.45;2.98;;;;;;;36.23;13.24;95741.45;1635090;88;21383;-65
2022/07/22 11:12:47;;;;;;;8.55;3.00;;;;;;;36.33;13.69;95736.55;1635211;87;21058;-65
2022/07/22 11:15:14;;;;;;;11.35;3.35;;;;;;;36.44;13.43;95742.13;1637594;87;21066;-65
2022/07/22 11:17:41;;;;;;;11.48;3.15;;;;;;;36.54;13.56;95736.72;1620630;88;21569;-65
2022/07/22 11:20:13;;;;;;;10.93;2.98;;;;;;;36.66;13.32;95737.13;1635252;87;21038;-65
2022/07/22 11:22:40;;;;;;;12.35;3.47;;;;;;;36.70;13.12;95730.76;1637799;88;21054;-65
2022/07/22 11:25:09;;;;;;;10.90;3.47;;;;;;;36.77;13.55;95727.06;1620715;88;21577;-65
2022/07/22 11:27:37;;;;;;;8.88;3.00;;;;;;;36.92;13.15;95731.20;1635234;87;21058;-65
2022/07/22 11:30:08;;;;;;;9.80;2.85;;;;;;;36.96;12.82;95728.92;1637597;87;21074;-65
2022/07/22 11:32:41;;;;;;;10.32;3.10;;;;;;;37.00;12.50;95729.73;1620901;88;21122;-65
2022/07/22 11:35:12;;;;;;;8.85;3.35;;;;;;;37.05;12.92;95720.10;1635247;88;21107;-65
2022/07/22 11:37:40;;;;;;;9.63;2.55;;;;;;;37.23;13.25;95721.41;1607901;89;21098;-65
2022/07/22 11:40:09;;;;;;;8.10;3.05;;;;;;;37.43;12.75;95716.16;1635485;87;21038;-65